sensor_id;sensor_type;location;lat;lon;timestamp;P1;durP1;ratioP1;P2;durP2;ratioP2
62880;SDS011;48969;49.934;8.596;2022-11-15T00:01:17;6.97;;;5.70;;
62880;SDS011;48969;49.934;8.596;2022-11-15T00:03:42;8.68;;;6.60;;
62880;SDS011;48969;49.934;8.596;2022-11-15T00:06:08;8.18;;;6.32;;
62880;SDS011;48969;49.934;8.596;2022-11-15T00:08:33;8.77;;;5.95;;
62880;SDS011;48969;49.934;8.596;2022-11-15T00:10:59;9.52;;;6.43;;
62880;SDS011;48969;49.934;8.596;2022-11-15T00:13:24;7.70;;;6.13;;
62880;SDS011;48969;49.934;8.596;2022-11-15T00:15:50;8.07;;;5.70;;
62880;SDS011;48969;49.934;8.596;2022-11-15T00:18:15;8.48;;;6.43;;
62880;SDS011;48969;49.934;8.596;2022-11-15T00:20:41;7.60;;;6.10;;
62880;SDS011;48969;49.934;8.596;2022-11-15T00:23:06;7.80;;;6.25;;
62880;SDS011;48969;49.934;8.596;2022-11-15T00:25:31;7.75;;;6.15;;
62880;SDS011;48969;49.934;8.596;2022-11-15T00:27:57;7.28;;;5.88;;
62880;SDS011;48969;49.934;8.596;2022-11-15T00:30:22;6.78;;;5.72;;
62880;SDS011;48969;49.934;8.596;2022-11-15T00:32:48;6.45;;;5.78;;
62880;SDS011;48969;49.934;8.596;2022-11-15T00:35:13;8.25;;;6.03;;
62880;SDS011;48969;49.934;8.596;2022-11-15T00:37:38;6.80;;;5.75;;
62880;SDS011;48969;49.934;8.596;2022-11-15T00:40:03;7.65;;;6.15;;
62880;SDS011;48969;49.934;8.596;2022-11-15T00:42:29;7.20;;;5.65;;
62880;SDS011;48969;49.934;8.596;2022-11-15T00:44:54;7.80;;;6.05;;
62880;SDS011;48969;49.934;8.596;2022-11-15T00:47:19;9.50;;;6.32;;
62880;SDS011;48969;49.934;8.596;2022-11-15T00:49:44;9.80;;;6.18;;
62880;SDS011;48969;49.934;8.596;2022-11-15T00:52:09;8.38;;;6.13;;
62880;SDS011;48969;49.934;8.596;2022-11-15T00:54:35;9.35;;;6.75;;
62880;SDS011;48969;49.934;8.596;2022-11-15T00:57:00;10.13;;;6.63;;
62880;SDS011;48969;49.934;8.596;2022-11-15T00:59:25;7.68;;;6.20;;
62880;SDS011;48969;49.934;8.596;2022-11-15T01:01:50;6.63;;;5.77;;
62880;SDS011;48969;49.934;8.596;2022-11-15T01:04:15;8.97;;;6.17;;
62880;SDS011;48969;49.934;8.596;2022-11-15T01:06:40;6.93;;;5.80;;
62880;SDS011;48969;49.934;8.596;2022-11-15T01:09:05;7.77;;;5.97;;
62880;SDS011;48969;49.934;8.596;2022-11-15T01:11:31;8.63;;;6.57;;
62880;SDS011;48969;49.934;8.596;2022-11-15T01:13:56;7.87;;;6.03;;
62880;SDS011;48969;49.934;8.596;2022-11-15T01:16:21;8.13;;;6.17;;
62880;SDS011;48969;49.934;8.596;2022-11-15T01:18:46;8.95;;;6.80;;
62880;SDS011;48969;49.934;8.596;2022-11-15T01:21:13;7.90;;;6.18;;
62880;SDS011;48969;49.934;8.596;2022-11-15T01:23:38;8.05;;;6.28;;
62880;SDS011;48969;49.934;8.596;2022-11-15T01:26:04;7.43;;;6.40;;
62880;SDS011;48969;49.934;8.596;2022-11-15T01:28:31;9.55;;;6.70;;
62880;SDS011;48969;49.934;8.596;2022-11-15T01:31:00;7.90;;;6.35;;
62880;SDS011;48969;49.934;8.596;2022-11-15T01:33:26;8.35;;;6.10;;
62880;SDS011;48969;49.934;8.596;2022-11-15T01:35:51;6.93;;;5.72;;
62880;SDS011;48969;49.934;8.596;2022-11-15T01:38:16;9.70;;;6.10;;
62880;SDS011;48969;49.934;8.596;2022-11-15T01:40:41;8.20;;;6.40;;
62880;SDS011;48969;49.934;8.596;2022-11-15T01:43:26;6.38;;;5.70;;
62880;SDS011;48969;49.934;8.596;2022-11-15T01:48:35;7.32;;;5.97;;
62880;SDS011;48969;49.934;8.596;2022-11-15T01:51:02;7.10;;;6.18;;
62880;SDS011;48969;49.934;8.596;2022-11-15T01:53:29;8.02;;;6.63;;
62880;SDS011;48969;49.934;8.596;2022-11-15T01:55:56;7.65;;;6.05;;
62880;SDS011;48969;49.934;8.596;2022-11-15T01:58:21;6.65;;;5.40;;
62880;SDS011;48969;49.934;8.596;2022-11-15T02:00:46;6.60;;;5.90;;
62880;SDS011;48969;49.934;8.596;2022-11-15T02:03:13;7.97;;;6.13;;
62880;SDS011;48969;49.934;8.596;2022-11-15T02:05:38;7.18;;;6.25;;
62880;SDS011;48969;49.934;8.596;2022-11-15T02:08:03;7.45;;;6.07;;
62880;SDS011;48969;49.934;8.596;2022-11-15T02:10:28;7.88;;;5.93;;
62880;SDS011;48969;49.934;8.596;2022-11-15T02:12:54;6.53;;;5.78;;
62880;SDS011;48969;49.934;8.596;2022-11-15T02:15:20;8.20;;;5.65;;
62880;SDS011;48969;49.934;8.596;2022-11-15T02:20:27;6.40;;;5.80;;
62880;SDS011;48969;49.934;8.596;2022-11-15T02:30:32;7.10;;;6.20;;
62880;SDS011;48969;49.934;8.596;2022-11-15T02:35:46;7.63;;;6.07;;
62880;SDS011;48969;49.934;8.596;2022-11-15T02:40:44;6.65;;;5.60;;
62880;SDS011;48969;49.934;8.596;2022-11-15T02:43:11;6.97;;;6.28;;
62880;SDS011;48969;49.934;8.596;2022-11-15T02:48:46;7.20;;;5.90;;
62880;SDS011;48969;49.934;8.596;2022-11-15T02:51:13;8.32;;;6.35;;
62880;SDS011;48969;49.934;8.596;2022-11-15T02:53:38;8.65;;;6.15;;
62880;SDS011;48969;49.934;8.596;2022-11-15T02:56:03;7.13;;;5.70;;
62880;SDS011;48969;49.934;8.596;2022-11-15T03:01:18;6.90;;;5.38;;
62880;SDS011;48969;49.934;8.596;2022-11-15T03:03:56;7.80;;;6.03;;
62880;SDS011;48969;49.934;8.596;2022-11-15T03:11:38;9.25;;;6.10;;
62880;SDS011;48969;49.934;8.596;2022-11-15T03:14:19;7.28;;;5.93;;
62880;SDS011;48969;49.934;8.596;2022-11-15T03:19:26;8.25;;;6.63;;
62880;SDS011;48969;49.934;8.596;2022-11-15T03:21:54;7.55;;;6.78;;
62880;SDS011;48969;49.934;8.596;2022-11-15T03:24:20;10.50;;;6.90;;
62880;SDS011;48969;49.934;8.596;2022-11-15T03:26:45;8.20;;;6.93;;
62880;SDS011;48969;49.934;8.596;2022-11-15T03:29:13;8.32;;;7.10;;
62880;SDS011;48969;49.934;8.596;2022-11-15T03:31:41;8.43;;;7.22;;
62880;SDS011;48969;49.934;8.596;2022-11-15T03:34:36;7.88;;;6.15;;
62880;SDS011;48969;49.934;8.596;2022-11-15T03:36:59;9.20;;;6.10;;
62880;SDS011;48969;49.934;8.596;2022-11-15T03:39:24;9.57;;;5.32;;
62880;SDS011;48969;49.934;8.596;2022-11-15T03:42:06;7.38;;;5.60;;
62880;SDS011;48969;49.934;8.596;2022-11-15T03:47:08;7.95;;;6.32;;
62880;SDS011;48969;49.934;8.596;2022-11-15T03:49:35;8.02;;;6.10;;
62880;SDS011;48969;49.934;8.596;2022-11-15T03:52:02;7.25;;;6.35;;
62880;SDS011;48969;49.934;8.596;2022-11-15T03:54:28;8.52;;;6.15;;
62880;SDS011;48969;49.934;8.596;2022-11-15T03:56:53;6.80;;;6.00;;
62880;SDS011;48969;49.934;8.596;2022-11-15T03:59:18;8.32;;;6.03;;
62880;SDS011;48969;49.934;8.596;2022-11-15T04:01:44;7.97;;;6.53;;
62880;SDS011;48969;49.934;8.596;2022-11-15T04:04:09;9.02;;;6.60;;
62880;SDS011;48969;49.934;8.596;2022-11-15T04:06:34;9.13;;;6.65;;
62880;SDS011;48969;49.934;8.596;2022-11-15T04:08:59;7.85;;;6.38;;
62880;SDS011;48969;49.934;8.596;2022-11-15T04:11:24;9.32;;;6.72;;
62880;SDS011;48969;49.934;8.596;2022-11-15T04:13:49;8.30;;;7.03;;
62880;SDS011;48969;49.934;8.596;2022-11-15T04:16:15;8.07;;;6.90;;
62880;SDS011;48969;49.934;8.596;2022-11-15T04:18:40;8.80;;;6.57;;
62880;SDS011;48969;49.934;8.596;2022-11-15T04:21:05;7.57;;;6.32;;
62880;SDS011;48969;49.934;8.596;2022-11-15T04:23:49;9.45;;;6.63;;
62880;SDS011;48969;49.934;8.596;2022-11-15T04:26:29;7.78;;;6.97;;
62880;SDS011;48969;49.934;8.596;2022-11-15T04:28:54;8.70;;;7.03;;
62880;SDS011;48969;49.934;8.596;2022-11-15T04:31:38;8.70;;;7.38;;
62880;SDS011;48969;49.934;8.596;2022-11-15T04:34:03;9.47;;;7.37;;
62880;SDS011;48969;49.934;8.596;2022-11-15T04:36:28;12.17;;;7.47;;
62880;SDS011;48969;49.934;8.596;2022-11-15T04:39:13;13.43;;;7.97;;
62880;SDS011;48969;49.934;8.596;2022-11-15T04:41:38;8.48;;;6.63;;
62880;SDS011;48969;49.934;8.596;2022-11-15T04:44:03;9.60;;;7.43;;
62880;SDS011;48969;49.934;8.596;2022-11-15T04:46:28;9.38;;;7.63;;
62880;SDS011;48969;49.934;8.596;2022-11-15T04:48:53;8.52;;;7.57;;
62880;SDS011;48969;49.934;8.596;2022-11-15T04:51:19;8.35;;;7.30;;
62880;SDS011;48969;49.934;8.596;2022-11-15T04:53:44;9.55;;;7.35;;
62880;SDS011;48969;49.934;8.596;2022-11-15T04:56:10;10.55;;;7.00;;
62880;SDS011;48969;49.934;8.596;2022-11-15T04:58:35;7.50;;;6.70;;
62880;SDS011;48969;49.934;8.596;2022-11-15T05:01:07;7.93;;;7.00;;
62880;SDS011;48969;49.934;8.596;2022-11-15T05:03:33;10.48;;;7.50;;
62880;SDS011;48969;49.934;8.596;2022-11-15T05:06:17;10.48;;;8.35;;
62880;SDS011;48969;49.934;8.596;2022-11-15T05:08:42;10.00;;;7.90;;
62880;SDS011;48969;49.934;8.596;2022-11-15T05:11:07;8.85;;;6.18;;
62880;SDS011;48969;49.934;8.596;2022-11-15T05:13:32;8.65;;;7.13;;
62880;SDS011;48969;49.934;8.596;2022-11-15T05:15:57;7.78;;;6.97;;
62880;SDS011;48969;49.934;8.596;2022-11-15T05:18:22;8.15;;;6.85;;
62880;SDS011;48969;49.934;8.596;2022-11-15T05:20:48;8.73;;;7.10;;
62880;SDS011;48969;49.934;8.596;2022-11-15T05:23:13;9.13;;;8.20;;
62880;SDS011;48969;49.934;8.596;2022-11-15T05:25:38;9.43;;;8.27;;
62880;SDS011;48969;49.934;8.596;2022-11-15T05:28:03;10.23;;;8.23;;
62880;SDS011;48969;49.934;8.596;2022-11-15T05:30:29;11.30;;;8.35;;
62880;SDS011;48969;49.934;8.596;2022-11-15T05:32:54;10.10;;;8.75;;
62880;SDS011;48969;49.934;8.596;2022-11-15T05:35:25;10.73;;;9.00;;
62880;SDS011;48969;49.934;8.596;2022-11-15T05:37:54;10.15;;;9.15;;
62880;SDS011;48969;49.934;8.596;2022-11-15T05:40:19;10.88;;;9.23;;
62880;SDS011;48969;49.934;8.596;2022-11-15T05:42:44;9.88;;;8.73;;
62880;SDS011;48969;49.934;8.596;2022-11-15T05:45:10;9.95;;;8.60;;
62880;SDS011;48969;49.934;8.596;2022-11-15T05:47:36;10.00;;;9.00;;
62880;SDS011;48969;49.934;8.596;2022-11-15T05:50:02;11.10;;;8.93;;
62880;SDS011;48969;49.934;8.596;2022-11-15T05:52:28;12.80;;;9.32;;
62880;SDS011;48969;49.934;8.596;2022-11-15T05:54:54;12.13;;;9.27;;
62880;SDS011;48969;49.934;8.596;2022-11-15T05:57:20;10.40;;;8.90;;
62880;SDS011;48969;49.934;8.596;2022-11-15T05:59:45;11.70;;;8.55;;
62880;SDS011;48969;49.934;8.596;2022-11-15T06:02:11;9.02;;;8.13;;
62880;SDS011;48969;49.934;8.596;2022-11-15T06:04:36;9.45;;;8.07;;
62880;SDS011;48969;49.934;8.596;2022-11-15T06:07:01;11.20;;;7.70;;
62880;SDS011;48969;49.934;8.596;2022-11-15T06:09:26;8.68;;;7.75;;
62880;SDS011;48969;49.934;8.596;2022-11-15T06:11:52;10.77;;;8.82;;
62880;SDS011;48969;49.934;8.596;2022-11-15T06:14:17;12.18;;;9.40;;
62880;SDS011;48969;49.934;8.596;2022-11-15T06:16:43;10.97;;;7.93;;
62880;SDS011;48969;49.934;8.596;2022-11-15T06:19:08;9.70;;;8.55;;
62880;SDS011;48969;49.934;8.596;2022-11-15T06:21:33;9.47;;;8.40;;
62880;SDS011;48969;49.934;8.596;2022-11-15T06:23:58;9.40;;;8.37;;
62880;SDS011;48969;49.934;8.596;2022-11-15T06:26:23;9.48;;;8.32;;
62880;SDS011;48969;49.934;8.596;2022-11-15T06:28:49;11.52;;;8.90;;
62880;SDS011;48969;49.934;8.596;2022-11-15T06:31:14;11.93;;;8.57;;
62880;SDS011;48969;49.934;8.596;2022-11-15T06:33:39;11.63;;;8.67;;
62880;SDS011;48969;49.934;8.596;2022-11-15T06:36:08;10.80;;;8.60;;
62880;SDS011;48969;49.934;8.596;2022-11-15T06:38:34;11.63;;;8.73;;
62880;SDS011;48969;49.934;8.596;2022-11-15T06:41:02;10.27;;;7.97;;
62880;SDS011;48969;49.934;8.596;2022-11-15T06:43:28;9.43;;;7.88;;
62880;SDS011;48969;49.934;8.596;2022-11-15T06:45:53;11.30;;;8.13;;
62880;SDS011;48969;49.934;8.596;2022-11-15T06:48:19;12.45;;;7.95;;
62880;SDS011;48969;49.934;8.596;2022-11-15T06:50:49;12.88;;;8.60;;
62880;SDS011;48969;49.934;8.596;2022-11-15T06:53:15;10.43;;;8.60;;
62880;SDS011;48969;49.934;8.596;2022-11-15T06:55:40;10.30;;;8.25;;
62880;SDS011;48969;49.934;8.596;2022-11-15T06:58:05;10.43;;;8.47;;
62880;SDS011;48969;49.934;8.596;2022-11-15T07:00:30;9.90;;;8.00;;
62880;SDS011;48969;49.934;8.596;2022-11-15T07:02:59;10.80;;;7.80;;
62880;SDS011;48969;49.934;8.596;2022-11-15T07:05:24;9.07;;;7.63;;
62880;SDS011;48969;49.934;8.596;2022-11-15T07:07:52;8.90;;;7.53;;
62880;SDS011;48969;49.934;8.596;2022-11-15T07:10:18;9.50;;;8.23;;
62880;SDS011;48969;49.934;8.596;2022-11-15T07:12:46;9.68;;;8.10;;
62880;SDS011;48969;49.934;8.596;2022-11-15T07:15:11;8.52;;;7.68;;
62880;SDS011;48969;49.934;8.596;2022-11-15T07:17:36;8.83;;;7.77;;
62880;SDS011;48969;49.934;8.596;2022-11-15T07:20:01;9.05;;;8.07;;
62880;SDS011;48969;49.934;8.596;2022-11-15T07:22:27;10.75;;;7.65;;
62880;SDS011;48969;49.934;8.596;2022-11-15T07:24:52;10.35;;;7.93;;
62880;SDS011;48969;49.934;8.596;2022-11-15T07:27:17;11.40;;;8.20;;
62880;SDS011;48969;49.934;8.596;2022-11-15T07:29:42;11.18;;;8.23;;
62880;SDS011;48969;49.934;8.596;2022-11-15T07:32:08;10.48;;;9.27;;
62880;SDS011;48969;49.934;8.596;2022-11-15T07:34:34;11.18;;;7.68;;
62880;SDS011;48969;49.934;8.596;2022-11-15T07:36:59;9.85;;;8.05;;
62880;SDS011;48969;49.934;8.596;2022-11-15T07:39:24;9.70;;;7.57;;
62880;SDS011;48969;49.934;8.596;2022-11-15T07:41:49;9.18;;;8.07;;
62880;SDS011;48969;49.934;8.596;2022-11-15T07:44:35;9.52;;;7.82;;
62880;SDS011;48969;49.934;8.596;2022-11-15T07:47:00;10.32;;;7.65;;
62880;SDS011;48969;49.934;8.596;2022-11-15T07:49:25;8.95;;;7.00;;
62880;SDS011;48969;49.934;8.596;2022-11-15T07:51:50;10.70;;;7.43;;
62880;SDS011;48969;49.934;8.596;2022-11-15T07:54:15;10.23;;;7.03;;
62880;SDS011;48969;49.934;8.596;2022-11-15T07:56:40;9.27;;;6.82;;
62880;SDS011;48969;49.934;8.596;2022-11-15T07:59:06;8.35;;;6.53;;
62880;SDS011;48969;49.934;8.596;2022-11-15T08:01:31;8.63;;;7.70;;
62880;SDS011;48969;49.934;8.596;2022-11-15T08:03:56;9.15;;;7.20;;
62880;SDS011;48969;49.934;8.596;2022-11-15T08:06:21;9.77;;;6.65;;
62880;SDS011;48969;49.934;8.596;2022-11-15T08:08:47;8.70;;;6.55;;
62880;SDS011;48969;49.934;8.596;2022-11-15T08:11:12;9.88;;;6.70;;
62880;SDS011;48969;49.934;8.596;2022-11-15T08:13:37;8.25;;;6.80;;
62880;SDS011;48969;49.934;8.596;2022-11-15T08:16:02;8.80;;;7.07;;
62880;SDS011;48969;49.934;8.596;2022-11-15T08:18:30;8.27;;;7.30;;
62880;SDS011;48969;49.934;8.596;2022-11-15T08:20:59;10.75;;;7.90;;
62880;SDS011;48969;49.934;8.596;2022-11-15T08:23:24;10.43;;;7.93;;
62880;SDS011;48969;49.934;8.596;2022-11-15T08:25:50;9.95;;;7.78;;
62880;SDS011;48969;49.934;8.596;2022-11-15T08:28:16;9.52;;;7.88;;
62880;SDS011;48969;49.934;8.596;2022-11-15T08:30:41;9.43;;;7.65;;
62880;SDS011;48969;49.934;8.596;2022-11-15T08:33:09;11.70;;;8.40;;
62880;SDS011;48969;49.934;8.596;2022-11-15T08:35:34;9.93;;;8.70;;
62880;SDS011;48969;49.934;8.596;2022-11-15T08:38:00;11.95;;;10.13;;
62880;SDS011;48969;49.934;8.596;2022-11-15T08:40:25;11.07;;;9.30;;
62880;SDS011;48969;49.934;8.596;2022-11-15T08:42:51;11.65;;;9.27;;
62880;SDS011;48969;49.934;8.596;2022-11-15T08:45:17;10.45;;;9.27;;
62880;SDS011;48969;49.934;8.596;2022-11-15T08:47:42;11.23;;;9.68;;
62880;SDS011;48969;49.934;8.596;2022-11-15T08:50:07;9.93;;;8.93;;
62880;SDS011;48969;49.934;8.596;2022-11-15T08:52:33;10.43;;;9.10;;
62880;SDS011;48969;49.934;8.596;2022-11-15T08:54:58;11.85;;;9.23;;
62880;SDS011;48969;49.934;8.596;2022-11-15T08:57:23;11.05;;;8.85;;
62880;SDS011;48969;49.934;8.596;2022-11-15T08:59:48;11.15;;;9.30;;
62880;SDS011;48969;49.934;8.596;2022-11-15T09:02:14;10.45;;;9.35;;
62880;SDS011;48969;49.934;8.596;2022-11-15T09:04:43;11.18;;;9.48;;
62880;SDS011;48969;49.934;8.596;2022-11-15T09:07:09;10.02;;;8.57;;
62880;SDS011;48969;49.934;8.596;2022-11-15T09:09:34;10.25;;;8.32;;
62880;SDS011;48969;49.934;8.596;2022-11-15T09:12:00;9.95;;;8.48;;
62880;SDS011;48969;49.934;8.596;2022-11-15T09:14:25;9.13;;;8.07;;
62880;SDS011;48969;49.934;8.596;2022-11-15T09:16:50;9.87;;;8.30;;
62880;SDS011;48969;49.934;8.596;2022-11-15T09:19:15;10.00;;;8.02;;
62880;SDS011;48969;49.934;8.596;2022-11-15T09:21:41;10.32;;;7.45;;
62880;SDS011;48969;49.934;8.596;2022-11-15T09:24:06;10.82;;;7.93;;
62880;SDS011;48969;49.934;8.596;2022-11-15T09:26:31;9.75;;;7.80;;
62880;SDS011;48969;49.934;8.596;2022-11-15T09:28:56;10.38;;;8.50;;
62880;SDS011;48969;49.934;8.596;2022-11-15T09:31:21;8.85;;;7.53;;
62880;SDS011;48969;49.934;8.596;2022-11-15T09:33:47;10.38;;;8.68;;
62880;SDS011;48969;49.934;8.596;2022-11-15T09:36:12;9.45;;;8.45;;
62880;SDS011;48969;49.934;8.596;2022-11-15T09:38:37;10.27;;;8.57;;
62880;SDS011;48969;49.934;8.596;2022-11-15T09:46:25;10.00;;;7.85;;
62880;SDS011;48969;49.934;8.596;2022-11-15T09:48:56;9.95;;;8.23;;
62880;SDS011;48969;49.934;8.596;2022-11-15T09:51:26;11.95;;;8.30;;
62880;SDS011;48969;49.934;8.596;2022-11-15T09:53:56;10.85;;;8.05;;
62880;SDS011;48969;49.934;8.596;2022-11-15T09:56:23;10.98;;;8.10;;
62880;SDS011;48969;49.934;8.596;2022-11-15T09:58:54;9.43;;;8.23;;
62880;SDS011;48969;49.934;8.596;2022-11-15T10:01:34;10.93;;;8.02;;
62880;SDS011;48969;49.934;8.596;2022-11-15T10:04:01;10.50;;;8.30;;
62880;SDS011;48969;49.934;8.596;2022-11-15T10:06:26;10.07;;;8.88;;
62880;SDS011;48969;49.934;8.596;2022-11-15T10:11:24;16.83;;;8.85;;
62880;SDS011;48969;49.934;8.596;2022-11-15T10:13:51;13.90;;;8.60;;
62880;SDS011;48969;49.934;8.596;2022-11-15T10:21:25;8.43;;;7.55;;
62880;SDS011;48969;49.934;8.596;2022-11-15T10:23:52;12.70;;;9.18;;
62880;SDS011;48969;49.934;8.596;2022-11-15T10:26:18;11.02;;;8.50;;
62880;SDS011;48969;49.934;8.596;2022-11-15T10:28:43;10.82;;;9.73;;
62880;SDS011;48969;49.934;8.596;2022-11-15T10:31:22;12.68;;;10.00;;
62880;SDS011;48969;49.934;8.596;2022-11-15T10:33:47;13.07;;;11.32;;
62880;SDS011;48969;49.934;8.596;2022-11-15T10:41:19;12.23;;;10.93;;
62880;SDS011;48969;49.934;8.596;2022-11-15T10:43:46;13.35;;;9.88;;
62880;SDS011;48969;49.934;8.596;2022-11-15T10:46:26;11.00;;;8.52;;
62880;SDS011;48969;49.934;8.596;2022-11-15T10:48:51;9.75;;;8.18;;
62880;SDS011;48969;49.934;8.596;2022-11-15T10:51:24;10.27;;;7.83;;
62880;SDS011;48969;49.934;8.596;2022-11-15T10:53:56;10.15;;;7.95;;
62880;SDS011;48969;49.934;8.596;2022-11-15T10:56:22;9.63;;;7.60;;
62880;SDS011;48969;49.934;8.596;2022-11-15T10:58:53;9.25;;;7.05;;
62880;SDS011;48969;49.934;8.596;2022-11-15T11:01:19;9.38;;;7.03;;
62880;SDS011;48969;49.934;8.596;2022-11-15T11:04:07;7.43;;;6.57;;
62880;SDS011;48969;49.934;8.596;2022-11-15T11:06:32;9.65;;;7.07;;
62880;SDS011;48969;49.934;8.596;2022-11-15T11:09:18;12.82;;;8.52;;
62880;SDS011;48969;49.934;8.596;2022-11-15T11:11:47;9.63;;;7.80;;
62880;SDS011;48969;49.934;8.596;2022-11-15T11:14:16;8.05;;;7.15;;
62880;SDS011;48969;49.934;8.596;2022-11-15T11:16:44;9.07;;;6.80;;
62880;SDS011;48969;49.934;8.596;2022-11-15T11:26:59;8.60;;;6.53;;
62880;SDS011;48969;49.934;8.596;2022-11-15T11:37:07;9.35;;;6.53;;
62880;SDS011;48969;49.934;8.596;2022-11-15T11:39:40;8.90;;;7.07;;
62880;SDS011;48969;49.934;8.596;2022-11-15T11:45:10;8.90;;;6.85;;
62880;SDS011;48969;49.934;8.596;2022-11-15T11:48:30;6.88;;;6.15;;
62880;SDS011;48969;49.934;8.596;2022-11-15T11:50:28;9.60;;;6.22;;
62880;SDS011;48969;49.934;8.596;2022-11-15T11:53:09;8.20;;;6.32;;
62880;SDS011;48969;49.934;8.596;2022-11-15T11:55:49;8.65;;;5.90;;
62880;SDS011;48969;49.934;8.596;2022-11-15T11:58:25;9.38;;;5.97;;
62880;SDS011;48969;49.934;8.596;2022-11-15T12:00:54;7.63;;;5.25;;
62880;SDS011;48969;49.934;8.596;2022-11-15T12:10:41;7.50;;;4.88;;
62880;SDS011;48969;49.934;8.596;2022-11-15T12:13:14;7.05;;;4.78;;
62880;SDS011;48969;49.934;8.596;2022-11-15T12:15:49;5.95;;;4.43;;
62880;SDS011;48969;49.934;8.596;2022-11-15T12:18:16;6.57;;;5.18;;
62880;SDS011;48969;49.934;8.596;2022-11-15T12:20:42;5.72;;;4.82;;
62880;SDS011;48969;49.934;8.596;2022-11-15T12:28:17;7.05;;;4.85;;
62880;SDS011;48969;49.934;8.596;2022-11-15T12:31:27;5.18;;;4.30;;
62880;SDS011;48969;49.934;8.596;2022-11-15T12:33:35;6.35;;;4.10;;
62880;SDS011;48969;49.934;8.596;2022-11-15T12:36:05;8.90;;;4.90;;
62880;SDS011;48969;49.934;8.596;2022-11-15T12:38:51;5.55;;;4.10;;
62880;SDS011;48969;49.934;8.596;2022-11-15T12:41:18;7.45;;;5.30;;
62880;SDS011;48969;49.934;8.596;2022-11-15T12:43:44;5.68;;;3.53;;
62880;SDS011;48969;49.934;8.596;2022-11-15T12:46:11;4.88;;;3.50;;
62880;SDS011;48969;49.934;8.596;2022-11-15T12:51:02;4.88;;;3.50;;
62880;SDS011;48969;49.934;8.596;2022-11-15T12:53:31;5.40;;;3.30;;
62880;SDS011;48969;49.934;8.596;2022-11-15T13:01:07;5.70;;;3.53;;
62880;SDS011;48969;49.934;8.596;2022-11-15T13:03:32;4.85;;;3.65;;
62880;SDS011;48969;49.934;8.596;2022-11-15T13:05:59;4.60;;;3.50;;
62880;SDS011;48969;49.934;8.596;2022-11-15T13:08:40;3.88;;;3.17;;
62880;SDS011;48969;49.934;8.596;2022-11-15T13:13:50;3.88;;;2.92;;
62880;SDS011;48969;49.934;8.596;2022-11-15T13:16:20;4.57;;;2.63;;
62880;SDS011;48969;49.934;8.596;2022-11-15T13:18:52;4.07;;;3.35;;
62880;SDS011;48969;49.934;8.596;2022-11-15T13:21:22;4.38;;;3.08;;
62880;SDS011;48969;49.934;8.596;2022-11-15T13:24:13;5.32;;;3.20;;
62880;SDS011;48969;49.934;8.596;2022-11-15T13:26:39;4.85;;;3.10;;
62880;SDS011;48969;49.934;8.596;2022-11-15T13:29:04;5.55;;;3.47;;
62880;SDS011;48969;49.934;8.596;2022-11-15T13:31:42;4.93;;;3.10;;
62880;SDS011;48969;49.934;8.596;2022-11-15T13:36:42;3.65;;;2.63;;
62880;SDS011;48969;49.934;8.596;2022-11-15T13:39:23;4.43;;;3.25;;
62880;SDS011;48969;49.934;8.596;2022-11-15T13:41:50;3.13;;;2.60;;
62880;SDS011;48969;49.934;8.596;2022-11-15T13:47:25;5.97;;;3.35;;
62880;SDS011;48969;49.934;8.596;2022-11-15T13:49:57;4.68;;;3.13;;
62880;SDS011;48969;49.934;8.596;2022-11-15T13:55:53;7.88;;;5.65;;
62880;SDS011;48969;49.934;8.596;2022-11-15T13:58:50;14.27;;;9.88;;
62880;SDS011;48969;49.934;8.596;2022-11-15T14:01:47;8.55;;;7.75;;
62880;SDS011;48969;49.934;8.596;2022-11-15T14:04:46;4.47;;;4.07;;
62880;SDS011;48969;49.934;8.596;2022-11-15T14:10:35;3.55;;;3.25;;
62880;SDS011;48969;49.934;8.596;2022-11-15T14:30:35;8.27;;;6.03;;
62880;SDS011;48969;49.934;8.596;2022-11-15T14:33:29;4.68;;;4.03;;
62880;SDS011;48969;49.934;8.596;2022-11-15T14:36:01;5.88;;;3.25;;
62880;SDS011;48969;49.934;8.596;2022-11-15T14:44:14;5.88;;;3.60;;
62880;SDS011;48969;49.934;8.596;2022-11-15T14:53:35;7.55;;;5.03;;
62880;SDS011;48969;49.934;8.596;2022-11-15T14:59:19;6.60;;;4.07;;
62880;SDS011;48969;49.934;8.596;2022-11-15T15:11:34;6.45;;;4.22;;
62880;SDS011;48969;49.934;8.596;2022-11-15T15:17:41;4.88;;;3.15;;
62880;SDS011;48969;49.934;8.596;2022-11-15T15:20:27;5.75;;;3.28;;
62880;SDS011;48969;49.934;8.596;2022-11-15T15:22:53;6.18;;;3.40;;
62880;SDS011;48969;49.934;8.596;2022-11-15T15:34:17;7.28;;;3.92;;
62880;SDS011;48969;49.934;8.596;2022-11-15T15:40:33;6.40;;;3.83;;
62880;SDS011;48969;49.934;8.596;2022-11-15T15:46:19;5.82;;;3.25;;
62880;SDS011;48969;49.934;8.596;2022-11-15T15:58:25;4.80;;;3.45;;
62880;SDS011;48969;49.934;8.596;2022-11-15T16:08:08;6.55;;;3.42;;
62880;SDS011;48969;49.934;8.596;2022-11-15T16:11:01;5.70;;;3.45;;
62880;SDS011;48969;49.934;8.596;2022-11-15T16:19:55;8.05;;;4.85;;
62880;SDS011;48969;49.934;8.596;2022-11-15T16:28:26;5.72;;;4.30;;
62880;SDS011;48969;49.934;8.596;2022-11-15T16:40:31;4.30;;;3.20;;
62880;SDS011;48969;49.934;8.596;2022-11-15T16:55:31;4.80;;;3.22;;
62880;SDS011;48969;49.934;8.596;2022-11-15T16:58:30;4.20;;;3.75;;
62880;SDS011;48969;49.934;8.596;2022-11-15T17:01:15;5.13;;;3.58;;
62880;SDS011;48969;49.934;8.596;2022-11-15T17:10:24;4.03;;;2.88;;
62880;SDS011;48969;49.934;8.596;2022-11-15T17:13:01;8.52;;;3.30;;
62880;SDS011;48969;49.934;8.596;2022-11-15T17:16:08;4.22;;;3.00;;
62880;SDS011;48969;49.934;8.596;2022-11-15T17:19:06;5.65;;;3.58;;
62880;SDS011;48969;49.934;8.596;2022-11-15T17:21:56;6.45;;;3.33;;
62880;SDS011;48969;49.934;8.596;2022-11-15T17:24:29;5.05;;;3.33;;
62880;SDS011;48969;49.934;8.596;2022-11-15T17:29:58;5.47;;;3.20;;
62880;SDS011;48969;49.934;8.596;2022-11-15T17:32:39;4.90;;;3.58;;
62880;SDS011;48969;49.934;8.596;2022-11-15T17:35:26;4.15;;;3.53;;
62880;SDS011;48969;49.934;8.596;2022-11-15T17:41:15;5.07;;;2.95;;
62880;SDS011;48969;49.934;8.596;2022-11-15T17:43:45;4.05;;;2.97;;
62880;SDS011;48969;49.934;8.596;2022-11-15T17:46:36;5.47;;;3.50;;
62880;SDS011;48969;49.934;8.596;2022-11-15T17:49:20;4.47;;;3.30;;
62880;SDS011;48969;49.934;8.596;2022-11-15T17:51:51;4.63;;;3.67;;
62880;SDS011;48969;49.934;8.596;2022-11-15T17:54:22;4.05;;;3.28;;
62880;SDS011;48969;49.934;8.596;2022-11-15T17:57:11;5.75;;;3.70;;
62880;SDS011;48969;49.934;8.596;2022-11-15T18:02:34;4.40;;;3.10;;
62880;SDS011;48969;49.934;8.596;2022-11-15T18:05:05;4.05;;;3.50;;
62880;SDS011;48969;49.934;8.596;2022-11-15T18:10:43;4.95;;;3.53;;
62880;SDS011;48969;49.934;8.596;2022-11-15T18:16:41;4.70;;;3.45;;
62880;SDS011;48969;49.934;8.596;2022-11-15T18:19:29;4.50;;;2.97;;
62880;SDS011;48969;49.934;8.596;2022-11-15T18:22:14;6.10;;;3.67;;
62880;SDS011;48969;49.934;8.596;2022-11-15T18:27:57;7.45;;;4.13;;
62880;SDS011;48969;49.934;8.596;2022-11-15T18:30:43;6.43;;;3.67;;
62880;SDS011;48969;49.934;8.596;2022-11-15T18:36:31;11.43;;;10.20;;
62880;SDS011;48969;49.934;8.596;2022-11-15T19:17:29;5.95;;;4.45;;
62880;SDS011;48969;49.934;8.596;2022-11-15T19:20:10;5.28;;;3.95;;
62880;SDS011;48969;49.934;8.596;2022-11-15T19:22:52;5.53;;;4.15;;
62880;SDS011;48969;49.934;8.596;2022-11-15T19:25:18;4.75;;;3.88;;
62880;SDS011;48969;49.934;8.596;2022-11-15T19:27:43;5.35;;;3.50;;
62880;SDS011;48969;49.934;8.596;2022-11-15T19:30:08;4.38;;;3.28;;
62880;SDS011;48969;49.934;8.596;2022-11-15T19:32:34;6.32;;;3.72;;
62880;SDS011;48969;49.934;8.596;2022-11-15T19:34:59;5.22;;;3.30;;
62880;SDS011;48969;49.934;8.596;2022-11-15T19:37:24;5.45;;;3.60;;
62880;SDS011;48969;49.934;8.596;2022-11-15T19:39:49;4.30;;;3.17;;
62880;SDS011;48969;49.934;8.596;2022-11-15T19:42:14;4.35;;;2.83;;